createdAt,value
2019-04-21T00:01:22.466Z,4.20
2019-04-21T00:03:53.906Z,4.60
2019-04-21T00:06:36.927Z,9.13
2019-04-21T00:09:11.544Z,5.08
2019-04-21T00:11:37.769Z,13.88
2019-04-21T00:13:52.736Z,4.70
2019-04-21T00:16:11.977Z,4.70
2019-04-21T00:24:24.282Z,4.67
2019-04-21T00:26:57.349Z,4.83
2019-04-21T00:29:33.051Z,4.72
2019-04-21T00:31:52.859Z,4.92
2019-04-21T00:34:06.731Z,5.55
2019-04-21T00:36:45.413Z,4.47
2019-04-21T00:39:34.457Z,5.12
2019-04-21T00:41:48.559Z,5.58
2019-04-21T00:44:12.589Z,4.45
2019-04-21T00:46:40.299Z,5.10
2019-04-21T00:49:10.564Z,5.12
2019-04-21T00:51:54.133Z,4.12
2019-04-21T00:57:12.638Z,4.12
2019-04-21T00:59:33.526Z,3.85
2019-04-21T01:01:59.963Z,4.30
2019-04-21T01:04:33.880Z,4.50
2019-04-21T01:06:54.455Z,4.03
2019-04-21T01:09:26.639Z,4.40
2019-04-21T01:11:55.300Z,4.72
2019-04-21T01:14:32.874Z,4.20
2019-04-21T01:16:51.688Z,5.70
2019-04-21T01:19:16.728Z,5.15
2019-04-21T01:21:26.533Z,4.58
2019-04-21T01:23:55.683Z,5.28
2019-04-21T01:26:32.773Z,4.50
2019-04-21T01:29:10.436Z,4.60
2019-04-21T01:31:34.864Z,4.00
2019-04-21T01:34:03.068Z,4.58
2019-04-21T01:36:33.325Z,4.58
2019-04-21T01:39:07.797Z,4.45
2019-04-21T01:41:36.589Z,4.92
2019-04-21T01:43:59.293Z,4.20
2019-04-21T01:46:22.661Z,4.20
2019-04-21T01:48:51.788Z,4.53
2019-04-21T01:51:18.952Z,4.60
2019-04-21T01:53:57.989Z,4.15
2019-04-21T01:56:30.505Z,5.30
2019-04-21T01:58:49.353Z,4.22
2019-04-21T02:01:28.377Z,4.53
2019-04-21T02:03:56.828Z,4.37
2019-04-21T02:06:27.707Z,4.78
2019-04-21T02:08:49.361Z,4.03
2019-04-21T02:11:24.540Z,4.03
2019-04-21T02:13:58.883Z,3.80
2019-04-21T02:16:16.912Z,4.20
2019-04-21T02:18:45.359Z,4.25
2019-04-21T02:21:00.503Z,4.03
2019-04-21T02:23:46.379Z,5.42
2019-04-21T02:26:12.727Z,4.42
2019-04-21T02:28:42.794Z,4.75
2019-04-21T02:33:50.693Z,4.03
2019-04-21T02:36:27.233Z,4.22
2019-04-21T02:41:25.957Z,4.37
2019-04-21T02:43:41.315Z,4.83
2019-04-21T02:46:10.500Z,4.87
2019-04-21T02:50:49.728Z,4.75
2019-04-21T02:53:47.854Z,5.00
2019-04-21T02:55:51.237Z,4.42
2019-04-21T03:01:07.024Z,5.08
2019-04-21T03:03:31.622Z,4.30
2019-04-21T03:08:59.008Z,4.85
2019-04-21T03:11:25.193Z,4.10
2019-04-21T03:16:25.959Z,4.65
2019-04-21T03:23:52.559Z,4.15
2019-04-21T03:38:37.766Z,4.25
2019-04-21T03:41:01.395Z,5.03
2019-04-21T03:45:51.408Z,3.85
2019-04-21T03:51:07.259Z,4.25
2019-04-21T03:53:20.838Z,4.22
2019-04-21T03:58:41.455Z,3.95
2019-04-21T04:08:43.731Z,4.60
2019-04-21T04:11:15.163Z,4.87
2019-04-21T04:13:37.290Z,7.37
2019-04-21T04:16:02.093Z,6.40
2019-04-21T04:18:33.428Z,7.47
2019-04-21T04:20:58.819Z,7.12
2019-04-21T04:23:43.808Z,6.58
2019-04-21T04:28:40.620Z,4.75
2019-04-21T04:30:48.797Z,4.30
2019-04-21T04:33:21.270Z,4.62
2019-04-21T04:35:56.064Z,5.15
2019-04-21T04:38:12.844Z,4.33
2019-04-21T04:43:28.567Z,7.17
2019-04-21T04:45:46.384Z,8.00
2019-04-21T04:48:11.834Z,8.10
2019-04-21T04:50:49.316Z,9.00
2019-04-21T04:58:07.870Z,10.23
2019-04-21T05:03:03.391Z,5.55
2019-04-21T05:06:24.213Z,8.73
2019-04-21T05:08:52.962Z,9.85
2019-04-21T05:13:34.797Z,9.53
2019-04-21T05:16:03.528Z,9.98
2019-04-21T05:18:35.072Z,10.18
2019-04-21T05:21:04.317Z,10.63
2019-04-21T05:23:18.153Z,10.13
2019-04-21T05:25:43.220Z,10.05
2019-04-21T05:28:08.949Z,9.60
2019-04-21T05:39:10.343Z,8.90
2019-04-21T05:41:31.294Z,10.15
2019-04-21T05:44:13.349Z,10.08
2019-04-21T05:46:42.776Z,8.65
2019-04-21T05:49:17.547Z,8.75
2019-04-21T05:51:59.728Z,7.05
2019-04-21T05:54:39.503Z,6.67
2019-04-21T05:57:02.389Z,7.30
2019-04-21T05:59:32.643Z,8.03
2019-04-21T06:02:06.100Z,6.35
2019-04-21T06:04:51.786Z,8.00
2019-04-21T06:07:04.768Z,6.95
2019-04-21T06:09:57.207Z,6.72
2019-04-21T06:12:21.091Z,6.10
2019-04-21T06:17:25.366Z,7.62
2019-04-21T06:19:52.657Z,8.38
2019-04-21T06:22:10.342Z,7.00
2019-04-21T06:24:58.418Z,9.28
2019-04-21T06:27:19.349Z,12.20
2019-04-21T06:29:36.221Z,11.50
2019-04-21T06:32:20.344Z,12.30
2019-04-21T06:34:47.590Z,6.67
2019-04-21T06:37:18.878Z,8.45
2019-04-21T06:39:42.671Z,7.83
2019-04-21T06:42:07.325Z,7.83
2019-04-21T06:44:33.713Z,8.25
2019-04-21T06:47:04.535Z,8.00
2019-04-21T06:49:25.046Z,6.60
2019-04-21T06:51:57.622Z,5.70
2019-04-21T06:54:22.034Z,6.33
2019-04-21T06:56:51.741Z,7.45
2019-04-21T06:59:19.227Z,6.67
2019-04-21T07:01:54.936Z,6.30
2019-04-21T07:04:29.599Z,6.22
2019-04-21T07:06:48.163Z,6.50
2019-04-21T07:11:39.377Z,6.33
2019-04-21T07:14:29.440Z,5.65
2019-04-21T07:16:42.886Z,5.65
2019-04-21T07:19:12.725Z,6.00
2019-04-21T07:21:33.839Z,8.10
2019-04-21T07:26:32.697Z,5.97
2019-04-21T07:29:01.844Z,6.03
2019-04-21T07:34:00.210Z,5.05
2019-04-21T07:36:30.918Z,5.60
2019-04-21T07:38:49.825Z,4.58
2019-04-21T07:41:11.207Z,4.50
2019-04-21T07:43:41.330Z,5.50
2019-04-21T07:46:10.120Z,4.85
2019-04-21T07:48:49.251Z,4.70
2019-04-21T07:51:37.713Z,5.42
2019-04-21T07:54:13.373Z,4.62
2019-04-21T07:56:22.686Z,4.58
2019-04-21T07:59:03.745Z,4.87
2019-04-21T08:01:32.183Z,4.10
2019-04-21T08:04:03.719Z,4.70
2019-04-21T08:06:40.316Z,4.62
2019-04-21T08:08:52.891Z,3.47
2019-04-21T08:11:24.356Z,4.45
2019-04-21T08:13:55.039Z,4.83
2019-04-21T08:18:47.426Z,5.10
2019-04-21T08:21:11.084Z,4.75
2019-04-21T08:23:41.475Z,4.62
2019-04-21T08:26:08.002Z,4.80
2019-04-21T08:28:39.237Z,5.00
2019-04-21T08:31:08.213Z,5.55
2019-04-21T08:33:38.722Z,4.42
2019-04-21T08:38:35.966Z,5.25
2019-04-21T08:41:05.121Z,5.92
2019-04-21T08:43:37.256Z,4.87
2019-04-21T08:45:57.285Z,5.25
2019-04-21T08:48:23.493Z,4.78
2019-04-21T08:51:02.090Z,4.85
2019-04-21T08:53:20.848Z,5.47
2019-04-21T08:55:55.392Z,5.45
2019-04-21T08:58:31.012Z,5.20
2019-04-21T09:01:18.084Z,5.15
2019-04-21T09:03:59.769Z,4.55
2019-04-21T09:06:31.715Z,5.15
2019-04-21T09:09:01.678Z,4.72
2019-04-21T09:11:17.693Z,3.42
2019-04-21T09:13:50.678Z,4.33
2019-04-21T09:16:17.146Z,4.58
2019-04-21T09:18:41.919Z,4.65
2019-04-21T09:21:21.868Z,4.62
2019-04-21T09:23:40.555Z,7.65
2019-04-21T09:26:05.045Z,5.30
2019-04-21T09:28:37.008Z,3.72
2019-04-21T09:30:53.502Z,3.87
2019-04-21T09:33:16.056Z,5.25
2019-04-21T09:35:49.166Z,5.72
2019-04-21T09:41:17.533Z,5.35
2019-04-21T09:43:46.545Z,5.15
2019-04-21T09:46:09.751Z,4.00
2019-04-21T09:48:49.086Z,4.12
2019-04-21T09:51:04.042Z,3.55
2019-04-21T09:53:35.043Z,4.33
2019-04-21T09:56:03.168Z,3.65
2019-04-21T09:58:34.652Z,3.90
2019-04-21T10:03:19.093Z,3.92
2019-04-21T10:05:45.235Z,4.12
2019-04-21T10:08:12.522Z,3.77
2019-04-21T10:10:39.901Z,2.90
2019-04-21T10:13:07.086Z,3.60
2019-04-21T10:15:33.356Z,3.17
2019-04-21T10:18:02.625Z,3.90
2019-04-21T10:20:28.922Z,3.05
2019-04-21T10:22:55.317Z,4.65
2019-04-21T10:25:22.770Z,4.00
2019-04-21T10:27:49.515Z,3.80
2019-04-21T10:30:16.340Z,4.45
2019-04-21T10:32:42.816Z,2.95
2019-04-21T10:35:10.781Z,3.55
2019-04-21T10:37:47.338Z,3.30
2019-04-21T10:40:07.419Z,3.50
2019-04-21T10:42:33.831Z,3.58
2019-04-21T10:45:01.086Z,3.80
2019-04-21T10:47:27.307Z,4.10
2019-04-21T10:49:54.820Z,4.87
2019-04-21T10:52:23.071Z,4.83
2019-04-21T10:55:12.758Z,4.90
2019-04-21T10:57:26.308Z,4.90
2019-04-21T10:59:55.525Z,3.83
2019-04-21T11:02:23.074Z,4.15
2019-04-21T11:04:49.308Z,4.03
2019-04-21T11:07:31.382Z,4.20
2019-04-21T11:09:54.067Z,4.50
2019-04-21T11:12:20.197Z,4.47
2019-04-21T11:14:47.218Z,5.60
2019-04-21T11:17:14.267Z,4.67
2019-04-21T11:19:41.107Z,4.25
2019-04-21T11:22:07.456Z,4.90
2019-04-21T11:24:33.477Z,4.72
2019-04-21T11:27:00.119Z,5.42
2019-04-21T11:29:28.616Z,5.72
2019-04-21T11:31:54.922Z,5.33
2019-04-21T11:34:21.145Z,5.85
2019-04-21T11:36:48.044Z,4.70
2019-04-21T11:39:35.556Z,4.67
2019-04-21T11:44:24.264Z,5.17
2019-04-21T11:46:48.870Z,5.03
2019-04-21T11:49:15.838Z,3.95
2019-04-21T11:51:42.793Z,4.42
2019-04-21T11:54:09.165Z,4.37
2019-04-21T11:56:35.328Z,4.62
2019-04-21T11:59:01.740Z,4.87
2019-04-21T12:01:28.040Z,4.83
2019-04-21T12:03:55.614Z,4.33
2019-04-21T12:06:30.774Z,4.85
2019-04-21T12:08:52.949Z,3.35
2019-04-21T12:11:17.943Z,4.72
2019-04-21T12:13:44.056Z,4.90
2019-04-21T12:16:12.768Z,5.10
2019-04-21T12:18:40.693Z,4.28
2019-04-21T12:21:07.478Z,3.92
2019-04-21T12:23:34.390Z,4.35
2019-04-21T12:26:01.217Z,4.42
2019-04-21T12:28:30.236Z,5.22
2019-04-21T12:30:57.877Z,4.20
2019-04-21T12:33:26.115Z,4.55
2019-04-21T12:35:53.575Z,3.85
2019-04-21T12:38:30.199Z,4.47
2019-04-21T12:40:48.572Z,3.45
2019-04-21T12:43:14.843Z,3.52
2019-04-21T12:45:41.987Z,2.67
2019-04-21T12:48:08.445Z,2.70
2019-04-21T12:50:36.011Z,2.27
2019-04-21T12:53:03.297Z,2.60
2019-04-21T12:55:31.612Z,2.62
2019-04-21T12:57:57.638Z,2.75
2019-04-21T13:00:24.818Z,3.50
2019-04-21T13:02:51.979Z,2.90
2019-04-21T13:05:18.232Z,2.60
2019-04-21T13:07:45.601Z,3.00
2019-04-21T13:10:12.705Z,2.95
2019-04-21T13:12:38.884Z,2.52
2019-04-21T13:15:06.817Z,2.50
2019-04-21T13:17:33.192Z,2.45
2019-04-21T13:19:59.366Z,2.40
2019-04-21T13:22:25.967Z,2.47
2019-04-21T13:24:52.189Z,2.15
2019-04-21T13:27:18.352Z,2.17
2019-04-21T13:29:44.490Z,1.85
2019-04-21T13:32:11.198Z,1.98
2019-04-21T13:34:40.014Z,2.15
2019-04-21T13:37:07.544Z,2.25
2019-04-21T13:40:16.461Z,2.20
2019-04-21T13:42:28.130Z,2.15
2019-04-21T13:44:46.637Z,2.15
2019-04-21T13:47:12.899Z,1.90
2019-04-21T13:49:39.268Z,1.62
2019-04-21T13:52:06.657Z,2.65
2019-04-21T13:54:33.724Z,1.98
2019-04-21T13:57:00.663Z,2.40
2019-04-21T13:59:26.913Z,2.42
2019-04-21T14:01:53.988Z,2.00
2019-04-21T14:04:20.276Z,2.35
2019-04-21T14:06:47.907Z,2.00
2019-04-21T14:09:15.605Z,1.85
2019-04-21T14:11:43.308Z,1.67
2019-04-21T14:14:10.371Z,1.75
2019-04-21T14:16:36.584Z,3.17
2019-04-21T14:19:03.475Z,1.90
2019-04-21T14:21:29.651Z,2.05
2019-04-21T14:23:56.400Z,2.08
2019-04-21T14:26:24.475Z,1.52
2019-04-21T14:28:51.307Z,1.40
2019-04-21T14:31:17.609Z,1.15
2019-04-21T14:33:43.861Z,1.40
2019-04-21T14:36:10.708Z,1.50
2019-04-21T14:38:38.465Z,1.37
2019-04-21T14:41:06.077Z,1.47
2019-04-21T14:43:32.322Z,1.47
2019-04-21T14:46:00.983Z,1.57
2019-04-21T14:48:29.569Z,1.42
2019-04-21T14:51:06.805Z,1.87
2019-04-21T14:53:36.024Z,1.62
2019-04-21T14:56:03.722Z,1.50
2019-04-21T14:58:30.858Z,1.32
2019-04-21T15:01:04.033Z,1.55
2019-04-21T15:03:31.936Z,1.70
2019-04-21T15:05:58.422Z,1.30
2019-04-21T15:08:25.000Z,1.37
2019-04-21T15:10:52.653Z,1.42
2019-04-21T15:13:19.546Z,1.17
2019-04-21T15:15:45.896Z,2.55
2019-04-21T15:18:12.580Z,1.62
2019-04-21T15:20:38.813Z,2.90
2019-04-21T15:23:06.190Z,3.95
2019-04-21T15:25:32.582Z,3.58
2019-04-21T15:27:59.097Z,2.02
2019-04-21T15:30:26.775Z,1.95
2019-04-21T15:32:53.093Z,2.15
2019-04-21T15:35:19.606Z,1.90
2019-04-21T15:37:46.347Z,1.72
2019-04-21T15:40:21.744Z,2.42
2019-04-21T15:42:42.097Z,2.58
2019-04-21T15:45:08.977Z,1.92
2019-04-21T15:47:36.024Z,2.52
2019-04-21T15:50:10.183Z,2.40
2019-04-21T15:52:32.226Z,1.92
2019-04-21T15:55:03.330Z,2.30
2019-04-21T15:57:31.263Z,1.67
2019-04-21T16:00:00.400Z,1.77
2019-04-21T16:05:15.018Z,1.30
2019-04-21T16:07:42.348Z,2.52
2019-04-21T16:10:11.570Z,1.90
2019-04-21T16:12:37.876Z,2.05
2019-04-21T16:15:08.455Z,3.25
2019-04-21T16:17:35.242Z,3.30
2019-04-21T16:20:02.117Z,3.05
2019-04-21T16:22:34.914Z,2.67
2019-04-21T16:25:01.189Z,2.17
2019-04-21T16:27:27.772Z,3.02
2019-04-21T16:29:54.095Z,2.55
2019-04-21T16:32:21.621Z,2.70
2019-04-21T16:34:54.265Z,2.70
2019-04-21T16:37:17.306Z,2.90
2019-04-21T16:39:45.222Z,3.62
2019-04-21T16:42:12.018Z,4.58
2019-04-21T16:44:38.879Z,2.65
2019-04-21T16:47:05.455Z,2.85
2019-04-21T16:49:31.861Z,3.00
2019-04-21T16:52:16.697Z,2.72
2019-04-21T16:54:47.988Z,3.42
2019-04-21T16:57:22.066Z,6.65
2019-04-21T16:59:50.666Z,3.20
2019-04-21T17:02:17.012Z,8.08
2019-04-21T17:04:44.356Z,5.33
2019-04-21T17:07:11.467Z,5.95
2019-04-21T17:09:38.911Z,6.72
2019-04-21T17:12:09.697Z,4.95
2019-04-21T17:14:51.254Z,3.72
2019-04-21T17:17:26.768Z,3.42
2019-04-21T17:19:37.930Z,4.08
2019-04-21T17:21:59.683Z,8.48
2019-04-21T17:24:26.510Z,5.33
2019-04-21T17:26:53.282Z,4.05
2019-04-21T17:29:20.916Z,3.40
2019-04-21T17:31:47.690Z,3.45
2019-04-21T17:34:19.467Z,3.40
2019-04-21T17:36:43.143Z,3.00
2019-04-21T17:39:10.982Z,3.10
2019-04-21T17:41:48.799Z,2.40
2019-04-21T17:44:08.962Z,2.47
2019-04-21T17:46:44.164Z,2.87
2019-04-21T17:49:03.331Z,3.35
2019-04-21T17:51:35.226Z,3.00
2019-04-21T17:54:08.232Z,3.12
2019-04-21T17:56:59.504Z,3.70
2019-04-21T17:59:36.286Z,3.70
2019-04-21T18:01:49.983Z,10.03
2019-04-21T18:04:15.347Z,8.38
2019-04-21T18:06:54.320Z,7.58
2019-04-21T18:09:32.766Z,13.70
2019-04-21T18:11:52.359Z,91.28
2019-04-21T18:14:01.757Z,39.95
2019-04-21T18:16:41.762Z,46.15
2019-04-21T18:19:05.066Z,18.07
2019-04-21T18:21:56.039Z,13.68
2019-04-21T18:24:22.594Z,13.65
2019-04-21T18:26:55.403Z,12.73
2019-04-21T18:29:17.829Z,9.58
2019-04-21T18:31:49.161Z,9.40
2019-04-21T18:34:25.668Z,7.53
2019-04-21T18:36:55.320Z,6.78
2019-04-21T18:39:38.147Z,9.58
2019-04-21T18:45:20.718Z,11.50
2019-04-21T18:47:35.201Z,9.25
2019-04-21T18:49:48.077Z,10.45
2019-04-21T18:52:24.554Z,6.78
2019-04-21T18:55:00.174Z,5.92
2019-04-21T18:57:22.845Z,5.83
2019-04-21T18:59:43.999Z,7.70
2019-04-21T19:02:11.224Z,6.10
2019-04-21T19:04:38.753Z,5.12
2019-04-21T19:07:17.308Z,6.12
2019-04-21T19:10:09.878Z,13.03
2019-04-21T19:12:20.851Z,11.03
2019-04-21T19:14:46.347Z,7.45
2019-04-21T19:17:56.753Z,9.15
2019-04-21T19:19:56.463Z,9.10
2019-04-21T19:22:09.135Z,9.30
2019-04-21T19:24:41.385Z,7.58
2019-04-21T19:27:12.703Z,7.45
2019-04-21T19:29:35.914Z,7.05
2019-04-21T19:32:10.478Z,4.70
2019-04-21T19:34:22.411Z,6.62
2019-04-21T19:36:51.954Z,6.55
2019-04-21T19:39:16.366Z,6.37
2019-04-21T19:41:50.739Z,6.60
2019-04-21T19:44:31.958Z,6.65
2019-04-21T19:46:55.954Z,5.42
2019-04-21T19:49:27.969Z,5.03
2019-04-21T19:51:43.781Z,5.55
2019-04-21T19:54:14.394Z,6.12
2019-04-21T19:56:30.279Z,7.05
2019-04-21T19:58:57.019Z,4.08
2019-04-21T20:04:34.404Z,4.87
2019-04-21T20:07:02.890Z,4.00
2019-04-21T20:09:40.744Z,4.53
2019-04-21T20:12:06.651Z,3.47
2019-04-21T20:14:49.293Z,3.62
2019-04-21T20:17:00.632Z,3.80
2019-04-21T20:19:16.194Z,3.77
2019-04-21T20:21:43.177Z,3.72
2019-04-21T20:24:14.060Z,3.62
2019-04-21T20:26:43.411Z,3.58
2019-04-21T20:29:20.817Z,4.35
2019-04-21T20:31:47.014Z,5.08
2019-04-21T20:34:18.014Z,5.83
2019-04-21T20:36:51.138Z,4.37
2019-04-21T20:39:05.809Z,5.28
2019-04-21T20:41:35.319Z,6.15
2019-04-21T20:44:11.925Z,5.20
2019-04-21T20:46:53.137Z,4.87
2019-04-21T20:49:04.094Z,5.28
2019-04-21T20:51:35.869Z,3.45
2019-04-21T20:53:59.055Z,4.25
2019-04-21T20:56:21.805Z,4.40
2019-04-21T20:58:55.835Z,4.55
2019-04-21T21:03:56.472Z,3.80
2019-04-21T21:06:21.838Z,3.85
2019-04-21T21:08:49.973Z,4.03
2019-04-21T21:11:20.897Z,3.65
2019-04-21T21:13:49.130Z,3.62
2019-04-21T21:21:11.100Z,3.47
2019-04-21T21:23:42.462Z,3.83
2019-04-21T21:26:18.846Z,4.28
2019-04-21T21:28:32.690Z,3.42
2019-04-21T21:31:09.669Z,4.12
2019-04-21T21:33:39.415Z,3.33
2019-04-21T21:36:06.571Z,3.67
2019-04-21T21:38:31.473Z,4.78
2019-04-21T21:40:53.050Z,5.80
2019-04-21T21:43:16.616Z,4.65
2019-04-21T21:45:42.559Z,5.08
2019-04-21T21:48:21.811Z,4.35
2019-04-21T21:50:45.574Z,4.28
2019-04-21T21:53:08.288Z,3.85
2019-04-21T21:55:32.300Z,4.35
2019-04-21T21:58:08.536Z,4.17
2019-04-21T22:00:41.880Z,4.58
2019-04-21T22:03:16.351Z,4.35
2019-04-21T22:05:43.373Z,3.72
2019-04-21T22:08:02.538Z,4.87
2019-04-21T22:10:29.476Z,3.98
2019-04-21T22:13:04.016Z,3.50
2019-04-21T22:15:27.851Z,4.12
2019-04-21T22:18:14.801Z,4.58
2019-04-21T22:20:37.361Z,4.60
2019-04-21T22:22:56.556Z,4.22
2019-04-21T22:25:24.361Z,4.15
2019-04-21T22:27:50.767Z,3.95
2019-04-21T22:30:24.735Z,3.65
2019-04-21T22:32:55.300Z,4.28
2019-04-21T22:35:23.530Z,4.65
2019-04-21T22:37:54.796Z,4.65
2019-04-21T22:40:20.520Z,4.65
2019-04-21T22:42:50.403Z,4.60
2019-04-21T22:45:07.337Z,4.08
2019-04-21T22:47:36.441Z,3.77
2019-04-21T22:50:02.633Z,4.60
2019-04-21T22:52:30.477Z,5.30
2019-04-21T22:55:00.827Z,4.92
2019-04-21T22:57:28.520Z,4.60
2019-04-21T22:59:59.914Z,5.12
2019-04-21T23:02:27.975Z,6.75
2019-04-21T23:04:54.655Z,5.50
2019-04-21T23:07:20.748Z,6.45
2019-04-21T23:09:45.630Z,6.25
2019-04-21T23:12:19.401Z,5.97
2019-04-21T23:14:47.417Z,5.92
2019-04-21T23:17:29.945Z,5.67
2019-04-21T23:20:00.035Z,5.53
2019-04-21T23:22:24.494Z,4.78
2019-04-21T23:24:53.103Z,5.22
2019-04-21T23:27:14.206Z,5.55
2019-04-21T23:29:52.817Z,5.12
2019-04-21T23:32:14.908Z,4.55
2019-04-21T23:34:30.814Z,4.92
2019-04-21T23:37:00.834Z,4.50
2019-04-21T23:39:23.383Z,4.40
2019-04-21T23:41:52.891Z,5.80
2019-04-21T23:44:18.986Z,6.22
2019-04-21T23:46:45.792Z,6.37
2019-04-21T23:49:23.173Z,4.65
2019-04-21T23:51:47.714Z,4.75
2019-04-21T23:54:09.141Z,5.40
2019-04-21T23:56:39.491Z,5.00
2019-04-21T23:59:07.465Z,4.35
